sensor_id;sensor_type;location;lat;lon;timestamp;pressure;altitude;pressure_sealevel;temperature
60615;BMP280;46444;45.590;5.284;2022-07-29T00:01:20;98557.38;;;25.96
60615;BMP280;46444;45.590;5.284;2022-07-29T00:03:46;98557.38;;;26.08
60615;BMP280;46444;45.590;5.284;2022-07-29T00:06:11;98549.94;;;26.08
60615;BMP280;46444;45.590;5.284;2022-07-29T00:08:37;98558.38;;;25.91
60615;BMP280;46444;45.590;5.284;2022-07-29T00:11:02;98556.22;;;25.97
60615;BMP280;46444;45.590;5.284;2022-07-29T00:13:27;98549.50;;;25.94
60615;BMP280;46444;45.590;5.284;2022-07-29T00:15:53;98553.81;;;25.95
60615;BMP280;46444;45.590;5.284;2022-07-29T00:18:18;98546.97;;;26.01
60615;BMP280;46444;45.590;5.284;2022-07-29T00:20:44;98547.41;;;25.91
60615;BMP280;46444;45.590;5.284;2022-07-29T00:23:09;98554.53;;;25.92
60615;BMP280;46444;45.590;5.284;2022-07-29T00:25:34;98558.38;;;25.91
60615;BMP280;46444;45.590;5.284;2022-07-29T00:28:00;98557.44;;;25.87
60615;BMP280;46444;45.590;5.284;2022-07-29T00:30:26;98550.47;;;25.78
60615;BMP280;46444;45.590;5.284;2022-07-29T00:32:51;98556.84;;;25.70
60615;BMP280;46444;45.590;5.284;2022-07-29T00:35:17;98551.16;;;25.75
60615;BMP280;46444;45.590;5.284;2022-07-29T00:38:01;98545.53;;;25.59
60615;BMP280;46444;45.590;5.284;2022-07-29T00:40:26;98542.38;;;25.57
60615;BMP280;46444;45.590;5.284;2022-07-29T00:42:52;98531.03;;;25.47
60615;BMP280;46444;45.590;5.284;2022-07-29T00:45:18;98536.34;;;25.31
60615;BMP280;46444;45.590;5.284;2022-07-29T00:47:47;98531.91;;;25.27
60615;BMP280;46444;45.590;5.284;2022-07-29T00:50:13;98539.69;;;25.04
60615;BMP280;46444;45.590;5.284;2022-07-29T00:52:39;98536.06;;;25.12
60615;BMP280;46444;45.590;5.284;2022-07-29T00:55:08;98532.50;;;25.00
60615;BMP280;46444;45.590;5.284;2022-07-29T00:57:35;98527.34;;;24.98
60615;BMP280;46444;45.590;5.284;2022-07-29T01:00:05;98536.00;;;25.00
60615;BMP280;46444;45.590;5.284;2022-07-29T01:02:31;98534.63;;;24.94
60615;BMP280;46444;45.590;5.284;2022-07-29T01:04:56;98537.34;;;24.94
60615;BMP280;46444;45.590;5.284;2022-07-29T01:07:24;98533.44;;;24.83
60615;BMP280;46444;45.590;5.284;2022-07-29T01:09:54;98537.19;;;24.79
60615;BMP280;46444;45.590;5.284;2022-07-29T01:12:25;98530.84;;;24.66
60615;BMP280;46444;45.590;5.284;2022-07-29T01:14:53;98548.00;;;24.46
60615;BMP280;46444;45.590;5.284;2022-07-29T01:17:43;98548.94;;;24.30
60615;BMP280;46444;45.590;5.284;2022-07-29T01:20:30;98547.00;;;24.51
60615;BMP280;46444;45.590;5.284;2022-07-29T01:26:28;98540.13;;;24.45
60615;BMP280;46444;45.590;5.284;2022-07-29T01:29:03;98538.50;;;24.52
60615;BMP280;46444;45.590;5.284;2022-07-29T01:34:23;98528.88;;;24.26
60615;BMP280;46444;45.590;5.284;2022-07-29T01:37:38;98537.88;;;24.26
60615;BMP280;46444;45.590;5.284;2022-07-29T01:39:46;98532.59;;;24.21
60615;BMP280;46444;45.590;5.284;2022-07-29T01:42:19;98529.94;;;24.33
60615;BMP280;46444;45.590;5.284;2022-07-29T01:45:08;98528.22;;;24.29
60615;BMP280;46444;45.590;5.284;2022-07-29T01:47:40;98532.16;;;24.19
60615;BMP280;46444;45.590;5.284;2022-07-29T01:50:14;98521.00;;;24.24
60615;BMP280;46444;45.590;5.284;2022-07-29T01:52:54;98523.66;;;24.12
60615;BMP280;46444;45.590;5.284;2022-07-29T01:55:26;98531.25;;;24.07
60615;BMP280;46444;45.590;5.284;2022-07-29T01:57:53;98532.56;;;24.01
60615;BMP280;46444;45.590;5.284;2022-07-29T02:00:22;98532.72;;;24.04
60615;BMP280;46444;45.590;5.284;2022-07-29T02:02:48;98529.66;;;24.06
60615;BMP280;46444;45.590;5.284;2022-07-29T02:05:17;98515.25;;;23.97
60615;BMP280;46444;45.590;5.284;2022-07-29T02:07:44;98534.56;;;24.12
60615;BMP280;46444;45.590;5.284;2022-07-29T02:10:12;98524.25;;;23.97
60615;BMP280;46444;45.590;5.284;2022-07-29T02:12:40;98522.91;;;24.03
60615;BMP280;46444;45.590;5.284;2022-07-29T02:15:07;98523.72;;;24.04
60615;BMP280;46444;45.590;5.284;2022-07-29T02:17:44;98520.44;;;23.90
60615;BMP280;46444;45.590;5.284;2022-07-29T02:20:11;98528.56;;;23.98
60615;BMP280;46444;45.590;5.284;2022-07-29T02:22:39;98519.06;;;24.04
60615;BMP280;46444;45.590;5.284;2022-07-29T02:25:06;98528.19;;;23.71
60615;BMP280;46444;45.590;5.284;2022-07-29T02:27:34;98532.72;;;23.58
60615;BMP280;46444;45.590;5.284;2022-07-29T02:30:02;98536.38;;;23.71
60615;BMP280;46444;45.590;5.284;2022-07-29T02:32:28;98536.97;;;23.76
60615;BMP280;46444;45.590;5.284;2022-07-29T02:34:55;98538.28;;;23.70
60615;BMP280;46444;45.590;5.284;2022-07-29T02:37:22;98535.09;;;23.68
60615;BMP280;46444;45.590;5.284;2022-07-29T02:39:48;98539.59;;;23.64
60615;BMP280;46444;45.590;5.284;2022-07-29T02:42:16;98524.19;;;23.68
60615;BMP280;46444;45.590;5.284;2022-07-29T02:44:43;98527.38;;;23.70
60615;BMP280;46444;45.590;5.284;2022-07-29T02:47:16;98526.47;;;23.66
60615;BMP280;46444;45.590;5.284;2022-07-29T02:52:39;98532.16;;;23.44
60615;BMP280;46444;45.590;5.284;2022-07-29T02:55:19;98534.59;;;23.37
60615;BMP280;46444;45.590;5.284;2022-07-29T02:57:52;98532.16;;;23.44
60615;BMP280;46444;45.590;5.284;2022-07-29T03:00:21;98528.16;;;23.42
60615;BMP280;46444;45.590;5.284;2022-07-29T03:02:50;98533.75;;;23.45
60615;BMP280;46444;45.590;5.284;2022-07-29T03:05:19;98533.59;;;23.42
60615;BMP280;46444;45.590;5.284;2022-07-29T03:07:49;98537.91;;;23.43
60615;BMP280;46444;45.590;5.284;2022-07-29T03:10:16;98542.94;;;23.15
60615;BMP280;46444;45.590;5.284;2022-07-29T03:12:42;98540.88;;;23.21
60615;BMP280;46444;45.590;5.284;2022-07-29T03:15:09;98542.63;;;23.34
60615;BMP280;46444;45.590;5.284;2022-07-29T03:17:35;98541.81;;;23.25
60615;BMP280;46444;45.590;5.284;2022-07-29T03:20:01;98545.19;;;23.30
60615;BMP280;46444;45.590;5.284;2022-07-29T03:22:27;98551.94;;;23.24
60615;BMP280;46444;45.590;5.284;2022-07-29T03:24:53;98547.09;;;23.30
60615;BMP280;46444;45.590;5.284;2022-07-29T03:27:18;98554.47;;;23.29
60615;BMP280;46444;45.590;5.284;2022-07-29T03:29:44;98546.47;;;23.33
60615;BMP280;46444;45.590;5.284;2022-07-29T03:32:09;98551.13;;;23.24
60615;BMP280;46444;45.590;5.284;2022-07-29T03:34:36;98553.84;;;23.32
60615;BMP280;46444;45.590;5.284;2022-07-29T03:37:02;98555.78;;;23.23
60615;BMP280;46444;45.590;5.284;2022-07-29T03:39:31;98565.22;;;23.34
60615;BMP280;46444;45.590;5.284;2022-07-29T03:41:59;98558.34;;;23.28
60615;BMP280;46444;45.590;5.284;2022-07-29T03:44:27;98557.41;;;23.24
60615;BMP280;46444;45.590;5.284;2022-07-29T03:46:53;98568.59;;;23.14
60615;BMP280;46444;45.590;5.284;2022-07-29T03:49:21;98583.53;;;23.17
60615;BMP280;46444;45.590;5.284;2022-07-29T03:51:48;98575.84;;;23.19
60615;BMP280;46444;45.590;5.284;2022-07-29T03:54:13;98571.19;;;23.28
60615;BMP280;46444;45.590;5.284;2022-07-29T03:56:42;98582.41;;;23.26
60615;BMP280;46444;45.590;5.284;2022-07-29T03:59:10;98594.13;;;23.18
60615;BMP280;46444;45.590;5.284;2022-07-29T04:01:36;98595.72;;;23.19
60615;BMP280;46444;45.590;5.284;2022-07-29T04:04:02;98592.16;;;23.02
60615;BMP280;46444;45.590;5.284;2022-07-29T04:06:27;98600.50;;;23.14
60615;BMP280;46444;45.590;5.284;2022-07-29T04:08:52;98596.84;;;23.18
60615;BMP280;46444;45.590;5.284;2022-07-29T04:11:18;98605.78;;;23.10
60615;BMP280;46444;45.590;5.284;2022-07-29T04:13:44;98602.91;;;23.07
60615;BMP280;46444;45.590;5.284;2022-07-29T04:16:09;98607.41;;;23.11
60615;BMP280;46444;45.590;5.284;2022-07-29T04:18:34;98605.63;;;23.15
60615;BMP280;46444;45.590;5.284;2022-07-29T04:21:00;98613.22;;;23.18
60615;BMP280;46444;45.590;5.284;2022-07-29T04:23:27;98622.31;;;23.14
60615;BMP280;46444;45.590;5.284;2022-07-29T04:25:52;98630.66;;;23.00
60615;BMP280;46444;45.590;5.284;2022-07-29T04:28:17;98622.16;;;23.10
60615;BMP280;46444;45.590;5.284;2022-07-29T04:30:43;98618.97;;;23.08
60615;BMP280;46444;45.590;5.284;2022-07-29T04:33:08;98612.88;;;22.94
60615;BMP280;46444;45.590;5.284;2022-07-29T04:35:36;98625.06;;;22.88
60615;BMP280;46444;45.590;5.284;2022-07-29T04:38:02;98617.97;;;22.87
60615;BMP280;46444;45.590;5.284;2022-07-29T04:40:28;98639.78;;;23.04
60615;BMP280;46444;45.590;5.284;2022-07-29T04:42:53;98638.34;;;23.07
60615;BMP280;46444;45.590;5.284;2022-07-29T04:45:18;98643.00;;;23.06
60615;BMP280;46444;45.590;5.284;2022-07-29T04:47:44;98641.38;;;23.05
60615;BMP280;46444;45.590;5.284;2022-07-29T04:50:10;98633.72;;;22.99
60615;BMP280;46444;45.590;5.284;2022-07-29T04:52:35;98633.88;;;23.02
60615;BMP280;46444;45.590;5.284;2022-07-29T04:55:03;98631.59;;;23.13
60615;BMP280;46444;45.590;5.284;2022-07-29T04:57:28;98629.19;;;23.11
60615;BMP280;46444;45.590;5.284;2022-07-29T04:59:53;98626.50;;;23.20
60615;BMP280;46444;45.590;5.284;2022-07-29T05:02:19;98619.75;;;23.17
60615;BMP280;46444;45.590;5.284;2022-07-29T05:04:44;98627.78;;;23.31
60615;BMP280;46444;45.590;5.284;2022-07-29T05:07:09;98632.75;;;23.37
60615;BMP280;46444;45.590;5.284;2022-07-29T05:09:35;98630.19;;;23.32
60615;BMP280;46444;45.590;5.284;2022-07-29T05:12:00;98638.53;;;23.27
60615;BMP280;46444;45.590;5.284;2022-07-29T05:14:26;98639.81;;;23.38
60615;BMP280;46444;45.590;5.284;2022-07-29T05:16:51;98642.53;;;23.38
60615;BMP280;46444;45.590;5.284;2022-07-29T05:19:18;98638.22;;;23.37
60615;BMP280;46444;45.590;5.284;2022-07-29T05:21:44;98643.00;;;23.40
60615;BMP280;46444;45.590;5.284;2022-07-29T05:24:09;98631.59;;;23.47
60615;BMP280;46444;45.590;5.284;2022-07-29T05:26:35;98629.81;;;23.59
60615;BMP280;46444;45.590;5.284;2022-07-29T05:29:00;98632.22;;;23.52
60615;BMP280;46444;45.590;5.284;2022-07-29T05:31:25;98640.25;;;23.49
60615;BMP280;46444;45.590;5.284;2022-07-29T05:33:51;98636.75;;;23.57
60615;BMP280;46444;45.590;5.284;2022-07-29T05:36:16;98643.78;;;23.58
60615;BMP280;46444;45.590;5.284;2022-07-29T05:38:41;98649.41;;;23.61
60615;BMP280;46444;45.590;5.284;2022-07-29T05:41:07;98643.28;;;23.64
60615;BMP280;46444;45.590;5.284;2022-07-29T05:43:32;98648.53;;;23.78
60615;BMP280;46444;45.590;5.284;2022-07-29T05:45:58;98652.25;;;23.73
60615;BMP280;46444;45.590;5.284;2022-07-29T05:48:23;98659.47;;;23.69
60615;BMP280;46444;45.590;5.284;2022-07-29T05:50:49;98654.31;;;23.76
60615;BMP280;46444;45.590;5.284;2022-07-29T05:53:14;98655.28;;;23.80
60615;BMP280;46444;45.590;5.284;2022-07-29T05:55:40;98658.16;;;23.84
60615;BMP280;46444;45.590;5.284;2022-07-29T05:58:05;98660.28;;;23.78
60615;BMP280;46444;45.590;5.284;2022-07-29T06:00:30;98664.06;;;23.86
60615;BMP280;46444;45.590;5.284;2022-07-29T06:02:56;98672.63;;;23.76
60615;BMP280;46444;45.590;5.284;2022-07-29T06:05:22;98664.44;;;23.84
60615;BMP280;46444;45.590;5.284;2022-07-29T06:07:47;98675.84;;;23.78
60615;BMP280;46444;45.590;5.284;2022-07-29T06:10:12;98678.56;;;23.78
60615;BMP280;46444;45.590;5.284;2022-07-29T06:12:38;98684.00;;;23.86
60615;BMP280;46444;45.590;5.284;2022-07-29T06:15:04;98691.72;;;23.84
60615;BMP280;46444;45.590;5.284;2022-07-29T06:17:29;98690.78;;;23.72
60615;BMP280;46444;45.590;5.284;2022-07-29T06:19:54;98689.00;;;23.84
60615;BMP280;46444;45.590;5.284;2022-07-29T06:22:20;98672.63;;;23.76
60615;BMP280;46444;45.590;5.284;2022-07-29T06:24:45;98679.84;;;23.80
60615;BMP280;46444;45.590;5.284;2022-07-29T06:27:11;98684.81;;;23.87
60615;BMP280;46444;45.590;5.284;2022-07-29T06:29:36;98705.53;;;23.79
60615;BMP280;46444;45.590;5.284;2022-07-29T06:32:02;98715.16;;;23.85
60615;BMP280;46444;45.590;5.284;2022-07-29T06:34:28;98705.38;;;23.84
60615;BMP280;46444;45.590;5.284;2022-07-29T06:36:53;98714.50;;;23.97
60615;BMP280;46444;45.590;5.284;2022-07-29T06:39:19;98715.00;;;23.99
60615;BMP280;46444;45.590;5.284;2022-07-29T06:41:48;98718.03;;;23.97
60615;BMP280;46444;45.590;5.284;2022-07-29T06:44:17;98713.25;;;23.77
60615;BMP280;46444;45.590;5.284;2022-07-29T06:46:43;98712.09;;;23.87
60615;BMP280;46444;45.590;5.284;2022-07-29T06:49:09;98703.28;;;23.64
60615;BMP280;46444;45.590;5.284;2022-07-29T06:51:35;98711.00;;;23.62
60615;BMP280;46444;45.590;5.284;2022-07-29T06:54:01;98709.88;;;23.72
60615;BMP280;46444;45.590;5.284;2022-07-29T06:56:26;98719.19;;;23.71
60615;BMP280;46444;45.590;5.284;2022-07-29T06:58:52;98730.25;;;23.74
60615;BMP280;46444;45.590;5.284;2022-07-29T07:01:17;98732.50;;;23.72
60615;BMP280;46444;45.590;5.284;2022-07-29T07:03:42;98733.16;;;23.69
60615;BMP280;46444;45.590;5.284;2022-07-29T07:06:08;98727.69;;;23.69
60615;BMP280;46444;45.590;5.284;2022-07-29T07:08:33;98708.28;;;23.71
60615;BMP280;46444;45.590;5.284;2022-07-29T07:10:59;98708.28;;;23.71
60615;BMP280;46444;45.590;5.284;2022-07-29T07:13:25;98712.59;;;23.63
60615;BMP280;46444;45.590;5.284;2022-07-29T07:15:51;98707.97;;;23.64
60615;BMP280;46444;45.590;5.284;2022-07-29T07:18:17;98708.44;;;23.74
60615;BMP280;46444;45.590;5.284;2022-07-29T07:20:44;98709.56;;;23.65
60615;BMP280;46444;45.590;5.284;2022-07-29T07:23:10;98691.44;;;23.60
60615;BMP280;46444;45.590;5.284;2022-07-29T07:25:35;98687.91;;;23.60
60615;BMP280;46444;45.590;5.284;2022-07-29T07:28:01;98697.22;;;23.50
60615;BMP280;46444;45.590;5.284;2022-07-29T07:30:27;98696.25;;;23.63
60615;BMP280;46444;45.590;5.284;2022-07-29T07:32:53;98690.00;;;23.71
60615;BMP280;46444;45.590;5.284;2022-07-29T07:35:18;98685.78;;;23.74
60615;BMP280;46444;45.590;5.284;2022-07-29T07:37:43;98681.47;;;23.64
60615;BMP280;46444;45.590;5.284;2022-07-29T07:40:10;98695.28;;;23.59
60615;BMP280;46444;45.590;5.284;2022-07-29T07:42:37;98716.94;;;23.73
60615;BMP280;46444;45.590;5.284;2022-07-29T07:45:03;98719.03;;;23.67
60615;BMP280;46444;45.590;5.284;2022-07-29T07:47:28;98724.50;;;23.50
60615;BMP280;46444;45.590;5.284;2022-07-29T07:49:54;98702.69;;;23.50
60615;BMP280;46444;45.590;5.284;2022-07-29T07:52:20;98718.72;;;23.52
60615;BMP280;46444;45.590;5.284;2022-07-29T07:54:46;98732.38;;;23.60
60615;BMP280;46444;45.590;5.284;2022-07-29T07:57:12;98729.50;;;23.48
60615;BMP280;46444;45.590;5.284;2022-07-29T07:59:38;98721.94;;;23.62
60615;BMP280;46444;45.590;5.284;2022-07-29T08:02:03;98711.47;;;23.64
60615;BMP280;46444;45.590;5.284;2022-07-29T08:04:29;98711.81;;;23.63
60615;BMP280;46444;45.590;5.284;2022-07-29T08:06:55;98701.84;;;23.67
60615;BMP280;46444;45.590;5.284;2022-07-29T08:09:21;98700.56;;;23.73
60615;BMP280;46444;45.590;5.284;2022-07-29T08:11:47;98705.41;;;23.67
60615;BMP280;46444;45.590;5.284;2022-07-29T08:14:12;98700.91;;;23.63
60615;BMP280;46444;45.590;5.284;2022-07-29T08:16:39;98695.09;;;23.73
60615;BMP280;46444;45.590;5.284;2022-07-29T08:19:05;98701.06;;;23.66
60615;BMP280;46444;45.590;5.284;2022-07-29T08:21:30;98700.09;;;23.62
60615;BMP280;46444;45.590;5.284;2022-07-29T08:23:56;98721.75;;;23.67
60615;BMP280;46444;45.590;5.284;2022-07-29T08:26:42;98741.34;;;23.69
60615;BMP280;46444;45.590;5.284;2022-07-29T08:29:08;98751.13;;;23.70
60615;BMP280;46444;45.590;5.284;2022-07-29T08:31:34;98763.00;;;23.74
60615;BMP280;46444;45.590;5.284;2022-07-29T08:34:00;98776.50;;;23.62
60615;BMP280;46444;45.590;5.284;2022-07-29T08:36:25;98788.69;;;23.65
60615;BMP280;46444;45.590;5.284;2022-07-29T08:38:51;98806.50;;;23.71
60615;BMP280;46444;45.590;5.284;2022-07-29T08:41:18;98809.22;;;23.71
60615;BMP280;46444;45.590;5.284;2022-07-29T08:43:44;98826.72;;;23.78
60615;BMP280;46444;45.590;5.284;2022-07-29T08:46:10;98833.47;;;23.81
60615;BMP280;46444;45.590;5.284;2022-07-29T08:48:36;98852.25;;;23.82
60615;BMP280;46444;45.590;5.284;2022-07-29T08:51:01;98849.50;;;23.74
60615;BMP280;46444;45.590;5.284;2022-07-29T08:53:28;98858.19;;;23.76
60615;BMP280;46444;45.590;5.284;2022-07-29T08:55:54;98874.88;;;23.74
60615;BMP280;46444;45.590;5.284;2022-07-29T08:58:20;98881.31;;;23.78
60615;BMP280;46444;45.590;5.284;2022-07-29T09:00:51;98891.06;;;23.54
60615;BMP280;46444;45.590;5.284;2022-07-29T09:03:19;98888.19;;;23.67
60615;BMP280;46444;45.590;5.284;2022-07-29T09:05:45;98879.50;;;23.65
60615;BMP280;46444;45.590;5.284;2022-07-29T09:08:12;98894.63;;;23.71
60615;BMP280;46444;45.590;5.284;2022-07-29T09:10:38;98903.28;;;23.73
60615;BMP280;46444;45.590;5.284;2022-07-29T09:13:03;98902.75;;;23.46
60615;BMP280;46444;45.590;5.284;2022-07-29T09:15:29;98902.22;;;23.35
60615;BMP280;46444;45.590;5.284;2022-07-29T09:17:54;98912.72;;;23.50
60615;BMP280;46444;45.590;5.284;2022-07-29T09:20:22;98904.53;;;23.50
60615;BMP280;46444;45.590;5.284;2022-07-29T09:22:48;98909.97;;;23.42
60615;BMP280;46444;45.590;5.284;2022-07-29T09:28:28;98907.25;;;23.11
60615;BMP280;46444;45.590;5.284;2022-07-29T09:30:58;98924.13;;;23.13
60615;BMP280;46444;45.590;5.284;2022-07-29T09:33:30;98922.53;;;23.12
60615;BMP280;46444;45.590;5.284;2022-07-29T09:36:05;98927.75;;;23.00
60615;BMP280;46444;45.590;5.284;2022-07-29T09:38:31;98930.91;;;22.94
60615;BMP280;46444;45.590;5.284;2022-07-29T09:41:00;98935.44;;;22.98
60615;BMP280;46444;45.590;5.284;2022-07-29T09:43:26;98945.50;;;22.89
60615;BMP280;46444;45.590;5.284;2022-07-29T09:45:52;98957.06;;;22.95
60615;BMP280;46444;45.590;5.284;2022-07-29T09:48:23;98953.53;;;22.94
60615;BMP280;46444;45.590;5.284;2022-07-29T09:50:49;98956.88;;;22.91
60615;BMP280;46444;45.590;5.284;2022-07-29T09:53:33;98955.63;;;22.97
60615;BMP280;46444;45.590;5.284;2022-07-29T09:55:59;98954.09;;;22.83
60615;BMP280;46444;45.590;5.284;2022-07-29T09:58:24;98953.38;;;22.69
60615;BMP280;46444;45.590;5.284;2022-07-29T10:00:52;98951.00;;;22.76
60615;BMP280;46444;45.590;5.284;2022-07-29T10:03:18;98962.22;;;22.74
60615;BMP280;46444;45.590;5.284;2022-07-29T10:05:45;98955.16;;;22.73
60615;BMP280;46444;45.590;5.284;2022-07-29T10:08:11;98941.66;;;22.68
60615;BMP280;46444;45.590;5.284;2022-07-29T10:10:41;98940.94;;;22.76
60615;BMP280;46444;45.590;5.284;2022-07-29T10:13:12;98947.16;;;22.77
60615;BMP280;46444;45.590;5.284;2022-07-29T10:15:39;98940.94;;;22.76
60615;BMP280;46444;45.590;5.284;2022-07-29T10:18:07;98936.97;;;22.82
60615;BMP280;46444;45.590;5.284;2022-07-29T10:20:32;98952.94;;;22.75
60615;BMP280;46444;45.590;5.284;2022-07-29T10:22:58;98937.75;;;22.83
60615;BMP280;46444;45.590;5.284;2022-07-29T10:25:24;98930.06;;;22.85
60615;BMP280;46444;45.590;5.284;2022-07-29T10:27:50;98937.94;;;22.86
60615;BMP280;46444;45.590;5.284;2022-07-29T10:30:17;98941.50;;;22.95
60615;BMP280;46444;45.590;5.284;2022-07-29T10:35:54;98937.03;;;22.99
60615;BMP280;46444;45.590;5.284;2022-07-29T10:38:43;98944.59;;;23.02
60615;BMP280;46444;45.590;5.284;2022-07-29T10:41:12;98932.56;;;23.03
60615;BMP280;46444;45.590;5.284;2022-07-29T10:43:54;98930.84;;;23.07
60615;BMP280;46444;45.590;5.284;2022-07-29T10:46:20;98924.38;;;23.03
60615;BMP280;46444;45.590;5.284;2022-07-29T10:49:04;98930.19;;;23.10
60615;BMP280;46444;45.590;5.284;2022-07-29T10:54:16;98922.97;;;23.06
60615;BMP280;46444;45.590;5.284;2022-07-29T10:56:42;98917.19;;;23.07
60615;BMP280;46444;45.590;5.284;2022-07-29T11:01:48;98926.41;;;23.20
60615;BMP280;46444;45.590;5.284;2022-07-29T11:04:15;98931.69;;;23.16
60615;BMP280;46444;45.590;5.284;2022-07-29T11:09:31;98924.84;;;23.27
60615;BMP280;46444;45.590;5.284;2022-07-29T11:11:57;98927.56;;;23.27
60615;BMP280;46444;45.590;5.284;2022-07-29T11:17:19;98933.34;;;23.34
60615;BMP280;46444;45.590;5.284;2022-07-29T11:19:45;98930.34;;;23.44
60615;BMP280;46444;45.590;5.284;2022-07-29T11:22:11;98923.94;;;23.49
60615;BMP280;46444;45.590;5.284;2022-07-29T11:25:15;98929.09;;;23.59
60615;BMP280;46444;45.590;5.284;2022-07-29T11:27:40;98935.06;;;23.69
60615;BMP280;46444;45.590;5.284;2022-07-29T11:30:06;98920.16;;;23.75
60615;BMP280;46444;45.590;5.284;2022-07-29T11:32:43;98925.81;;;23.87
60615;BMP280;46444;45.590;5.284;2022-07-29T11:35:22;98917.78;;;23.99
60615;BMP280;46444;45.590;5.284;2022-07-29T11:38:23;98913.00;;;24.13
60615;BMP280;46444;45.590;5.284;2022-07-29T11:43:58;98916.50;;;24.05
60615;BMP280;46444;45.590;5.284;2022-07-29T11:49:12;98915.22;;;24.28
60615;BMP280;46444;45.590;5.284;2022-07-29T11:51:38;98911.50;;;24.41
60615;BMP280;46444;45.590;5.284;2022-07-29T11:54:05;98905.56;;;24.48
60615;BMP280;46444;45.590;5.284;2022-07-29T11:56:34;98893.66;;;24.52
60615;BMP280;46444;45.590;5.284;2022-07-29T11:59:05;98904.59;;;24.61
60615;BMP280;46444;45.590;5.284;2022-07-29T12:01:31;98904.75;;;24.64
60615;BMP280;46444;45.590;5.284;2022-07-29T12:04:06;98901.16;;;24.81
60615;BMP280;46444;45.590;5.284;2022-07-29T12:06:35;98898.94;;;24.83
60615;BMP280;46444;45.590;5.284;2022-07-29T12:09:00;98899.88;;;24.78
60615;BMP280;46444;45.590;5.284;2022-07-29T12:11:31;98909.03;;;24.82
60615;BMP280;46444;45.590;5.284;2022-07-29T12:13:56;98904.53;;;24.86
60615;BMP280;46444;45.590;5.284;2022-07-29T12:16:22;98901.25;;;25.01
60615;BMP280;46444;45.590;5.284;2022-07-29T12:18:58;98902.81;;;25.11
60615;BMP280;46444;45.590;5.284;2022-07-29T12:21:23;98895.25;;;25.16
60615;BMP280;46444;45.590;5.284;2022-07-29T12:23:53;98885.41;;;25.32
60615;BMP280;46444;45.590;5.284;2022-07-29T12:26:19;98888.91;;;25.33
60615;BMP280;46444;45.590;5.284;2022-07-29T12:28:45;98892.44;;;25.42
60615;BMP280;46444;45.590;5.284;2022-07-29T12:31:14;98886.69;;;25.55
60615;BMP280;46444;45.590;5.284;2022-07-29T12:33:40;98884.03;;;25.67
60615;BMP280;46444;45.590;5.284;2022-07-29T12:36:06;98888.66;;;25.75
60615;BMP280;46444;45.590;5.284;2022-07-29T12:38:34;98873.03;;;25.76
60615;BMP280;46444;45.590;5.284;2022-07-29T12:41:00;98879.38;;;25.88
60615;BMP280;46444;45.590;5.284;2022-07-29T12:43:26;98873.75;;;25.93
60615;BMP280;46444;45.590;5.284;2022-07-29T12:45:54;98873.66;;;26.02
60615;BMP280;46444;45.590;5.284;2022-07-29T12:48:39;98871.72;;;26.02
60615;BMP280;46444;45.590;5.284;2022-07-29T12:51:06;98866.28;;;26.14
60615;BMP280;46444;45.590;5.284;2022-07-29T12:53:33;98874.56;;;26.26
60615;BMP280;46444;45.590;5.284;2022-07-29T12:56:00;98861.13;;;26.33
60615;BMP280;46444;45.590;5.284;2022-07-29T12:58:32;98858.25;;;26.30
60615;BMP280;46444;45.590;5.284;2022-07-29T13:01:00;98858.72;;;26.32
60615;BMP280;46444;45.590;5.284;2022-07-29T13:03:25;98847.31;;;26.42
60615;BMP280;46444;45.590;5.284;2022-07-29T13:05:51;98855.69;;;26.45
60615;BMP280;46444;45.590;5.284;2022-07-29T13:08:17;98849.25;;;26.62
60615;BMP280;46444;45.590;5.284;2022-07-29T13:10:45;98854.41;;;26.63
60615;BMP280;46444;45.590;5.284;2022-07-29T13:13:14;98853.94;;;26.73
60615;BMP280;46444;45.590;5.284;2022-07-29T13:15:42;98848.81;;;26.84
60615;BMP280;46444;45.590;5.284;2022-07-29T13:18:32;98854.34;;;26.96
60615;BMP280;46444;45.590;5.284;2022-07-29T13:21:10;98851.00;;;27.02
60615;BMP280;46444;45.590;5.284;2022-07-29T13:23:36;98848.38;;;27.06
60615;BMP280;46444;45.590;5.284;2022-07-29T13:26:11;98841.84;;;27.10
60615;BMP280;46444;45.590;5.284;2022-07-29T13:28:37;98844.19;;;27.20
60615;BMP280;46444;45.590;5.284;2022-07-29T13:31:02;98846.38;;;27.27
60615;BMP280;46444;45.590;5.284;2022-07-29T13:33:28;98837.09;;;27.31
60615;BMP280;46444;45.590;5.284;2022-07-29T13:35:54;98839.59;;;27.36
60615;BMP280;46444;45.590;5.284;2022-07-29T13:38:19;98840.97;;;27.42
60615;BMP280;46444;45.590;5.284;2022-07-29T13:40:44;98835.16;;;27.44
60615;BMP280;46444;45.590;5.284;2022-07-29T13:43:10;98834.53;;;27.50
60615;BMP280;46444;45.590;5.284;2022-07-29T13:45:36;98825.03;;;27.60
60615;BMP280;46444;45.590;5.284;2022-07-29T13:48:02;98828.72;;;27.52
60615;BMP280;46444;45.590;5.284;2022-07-29T13:50:27;98820.34;;;27.60
60615;BMP280;46444;45.590;5.284;2022-07-29T13:52:52;98828.13;;;27.70
60615;BMP280;46444;45.590;5.284;2022-07-29T13:55:18;98829.13;;;27.78
60615;BMP280;46444;45.590;5.284;2022-07-29T13:57:44;98818.34;;;27.85
60615;BMP280;46444;45.590;5.284;2022-07-29T14:00:09;98820.75;;;27.86
60615;BMP280;46444;45.590;5.284;2022-07-29T14:02:35;98804.63;;;27.85
60615;BMP280;46444;45.590;5.284;2022-07-29T14:05:02;98813.09;;;27.92
60615;BMP280;46444;45.590;5.284;2022-07-29T14:07:28;98801.03;;;27.96
60615;BMP280;46444;45.590;5.284;2022-07-29T14:09:53;98798.38;;;28.00
60615;BMP280;46444;45.590;5.284;2022-07-29T14:12:19;98791.16;;;28.07
60615;BMP280;46444;45.590;5.284;2022-07-29T14:14:44;98796.13;;;28.17
60615;BMP280;46444;45.590;5.284;2022-07-29T14:17:09;98796.13;;;28.17
60615;BMP280;46444;45.590;5.284;2022-07-29T14:19:35;98788.88;;;28.25
60615;BMP280;46444;45.590;5.284;2022-07-29T14:22:04;98790.19;;;28.15
60615;BMP280;46444;45.590;5.284;2022-07-29T14:24:29;98791.28;;;28.26
60615;BMP280;46444;45.590;5.284;2022-07-29T14:26:55;98785.41;;;28.40
60615;BMP280;46444;45.590;5.284;2022-07-29T14:29:21;98784.81;;;28.34
60615;BMP280;46444;45.590;5.284;2022-07-29T14:31:47;98786.25;;;28.44
60615;BMP280;46444;45.590;5.284;2022-07-29T14:34:12;98780.78;;;28.44
60615;BMP280;46444;45.590;5.284;2022-07-29T14:36:38;98780.25;;;28.54
60615;BMP280;46444;45.590;5.284;2022-07-29T14:39:03;98789.03;;;28.59
60615;BMP280;46444;45.590;5.284;2022-07-29T14:41:29;98784.25;;;28.56
60615;BMP280;46444;45.590;5.284;2022-07-29T14:43:54;98774.94;;;28.61